Time;durP1;ratioP1;P1;durP2;ratioP2;P2;SDS_P1;SDS_P2;PMS_P1;PMS_P2;Temp;Humidity;BMP_temperature;BMP_pressure;BME280_temperature;BME280_humidity;BME280_pressure;Samples;Min_cycle;Max_cycle;Signal;HPM_P1;HPM_P2
2020/12/25 00:00:54;;;;;;;5.50;1.85;;;5.10;92.90;;;;;;5058824;28;20061;-81
2020/12/25 00:03:27;;;;;;;3.63;1.98;;;5.10;92.50;;;;;;5046421;28;20056;-81
2020/12/25 00:05:54;;;;;;;4.28;1.73;;;5.10;92.20;;;;;;5046141;28;20083;-80
2020/12/25 00:08:21;;;;;;;2.80;1.17;;;5.10;92.40;;;;;;5066035;28;20252;-80
2020/12/25 00:10:55;;;;;;;3.45;1.75;;;5.00;92.60;;;;;;5061120;28;20125;-83
2020/12/25 00:13:21;;;;;;;5.00;1.70;;;4.90;92.90;;;;;;5064729;28;20136;-84
2020/12/25 00:15:52;;;;;;;5.65;1.88;;;4.90;92.80;;;;;;5069518;28;20059;-81
2020/12/25 00:18:20;;;;;;;6.25;1.90;;;4.90;93.10;;;;;;5063287;28;20168;-80
2020/12/25 00:20:49;;;;;;;7.60;2.00;;;4.90;93.00;;;;;;5064673;28;20087;-80
2020/12/25 00:23:16;;;;;;;6.32;1.88;;;5.00;92.70;;;;;;5064044;28;20061;-83
2020/12/25 00:25:48;;;;;;;3.75;1.63;;;4.90;92.10;;;;;;5050611;28;20049;-84
2020/12/25 00:28:17;;;;;;;3.60;1.33;;;4.90;92.00;;;;;;5060430;28;20289;-82
2020/12/25 00:30:47;;;;;;;6.32;1.50;;;4.90;91.80;;;;;;5046870;28;20239;-81
2020/12/25 00:33:14;;;;;;;3.78;1.38;;;5.00;91.90;;;;;;5060314;28;20343;-82
2020/12/25 00:35:43;;;;;;;3.05;1.55;;;5.10;92.40;;;;;;5058623;28;20049;-81
2020/12/25 00:38:14;;;;;;;5.43;1.88;;;5.10;93.00;;;;;;5063112;28;20099;-81
2020/12/25 00:40:44;;;;;;;3.67;1.27;;;5.00;92.50;;;;;;5046064;28;20055;-80
2020/12/25 00:43:11;;;;;;;3.05;1.20;;;5.00;92.20;;;;;;5062556;28;20044;-79
2020/12/25 00:45:39;;;;;;;3.33;1.17;;;5.00;92.00;;;;;;5063576;28;20068;-80
2020/12/25 00:48:05;;;;;;;5.07;2.17;;;5.10;92.00;;;;;;5046873;28;20053;-80
2020/12/25 00:50:33;;;;;;;4.75;1.30;;;5.10;91.50;;;;;;5042969;28;20061;-79
2020/12/25 00:53:01;;;;;;;2.97;1.27;;;5.10;91.50;;;;;;5050898;28;20033;-80
2020/12/25 00:55:28;;;;;;;3.75;1.55;;;5.20;91.00;;;;;;5055059;28;20356;-81
2020/12/25 00:57:55;;;;;;;3.05;1.33;;;5.20;90.00;;;;;;5059477;28;20045;-83
2020/12/25 01:00:30;;;;;;;4.07;1.85;;;5.20;90.60;;;;;;5049605;28;20045;-84
2020/12/25 01:02:57;;;;;;;6.72;2.42;;;5.20;90.90;;;;;;5066948;28;20123;-83
2020/12/25 01:05:25;;;;;;;4.95;1.70;;;5.10;91.50;;;;;;5069350;28;20044;-81
2020/12/25 01:07:52;;;;;;;3.25;1.23;;;5.20;91.80;;;;;;5060381;28;20041;-82
2020/12/25 01:10:20;;;;;;;1.25;0.57;;;5.20;91.60;;;;;;5066649;28;20071;-81
2020/12/25 01:12:46;;;;;;;3.03;1.52;;;5.20;91.90;;;;;;5079290;28;20048;-79
2020/12/25 01:15:13;;;;;;;3.22;1.42;;;5.20;92.00;;;;;;5062490;28;20052;-81
2020/12/25 01:17:41;;;;;;;3.47;1.60;;;5.20;92.10;;;;;;5067381;28;20102;-81
2020/12/25 01:20:08;;;;;;;7.20;2.38;;;5.20;92.50;;;;;;5068777;28;20414;-82
2020/12/25 01:22:37;;;;;;;4.03;1.80;;;5.20;92.30;;;;;;5078959;28;20074;-79
2020/12/25 01:25:06;;;;;;;15.23;5.18;;;5.20;92.20;;;;;;5065164;28;20048;-82
2020/12/25 01:27:34;;;;;;;6.65;1.75;;;5.10;92.90;;;;;;5047289;28;20120;-81
2020/12/25 01:30:03;;;;;;;6.03;1.40;;;5.20;92.30;;;;;;5073959;28;20051;-82
2020/12/25 01:32:34;;;;;;;2.85;1.33;;;5.20;92.20;;;;;;5072815;28;20045;-81
2020/12/25 01:35:01;;;;;;;4.13;1.65;;;5.20;92.00;;;;;;5070707;28;20056;-82
2020/12/25 01:37:28;;;;;;;3.17;1.27;;;5.20;92.00;;;;;;5054317;28;20362;-81
2020/12/25 01:39:55;;;;;;;9.90;1.98;;;5.10;91.80;;;;;;5062813;28;20229;-79
2020/12/25 01:42:26;;;;;;;3.25;1.48;;;5.10;92.00;;;;;;5057917;28;20048;-80
2020/12/25 01:44:54;;;;;;;4.10;1.65;;;5.20;91.50;;;;;;5069174;28;20437;-80
2020/12/25 01:47:21;;;;;;;7.20;2.13;;;5.20;91.40;;;;;;5081088;28;20052;-81
2020/12/25 01:49:50;;;;;;;5.32;1.55;;;5.20;91.20;;;;;;5073149;28;20308;-80
2020/12/25 01:52:18;;;;;;;5.20;2.20;;;5.30;90.90;;;;;;5062065;28;20082;-79
2020/12/25 01:54:47;;;;;;;5.68;2.00;;;5.40;90.10;;;;;;5073777;28;20049;-80
2020/12/25 01:57:14;;;;;;;5.15;1.77;;;5.30;90.80;;;;;;5063901;28;20121;-81
2020/12/25 01:59:42;;;;;;;2.97;1.20;;;5.30;90.90;;;;;;5053112;28;20053;-80
2020/12/25 02:02:11;;;;;;;4.15;1.35;;;5.40;90.60;;;;;;5065952;28;20061;-82
2020/12/25 02:04:38;;;;;;;4.93;2.45;;;5.30;90.40;;;;;;5075991;28;20079;-82
2020/12/25 02:07:05;;;;;;;3.38;1.67;;;5.30;90.30;;;;;;5060633;28;20095;-82
2020/12/25 02:09:34;;;;;;;5.65;1.50;;;5.30;90.60;;;;;;5060302;28;20405;-81
2020/12/25 02:12:01;;;;;;;3.95;1.38;;;5.30;90.80;;;;;;5078710;28;20112;-81
2020/12/25 02:14:28;;;;;;;5.90;1.15;;;5.30;90.90;;;;;;5061977;28;20060;-81
2020/12/25 02:16:55;;;;;;;3.13;1.77;;;5.40;90.80;;;;;;5070506;28;20045;-80
2020/12/25 02:19:23;;;;;;;5.95;1.58;;;5.30;90.30;;;;;;5075240;28;20133;-80
2020/12/25 02:21:52;;;;;;;4.63;1.67;;;5.30;90.30;;;;;;5062201;28;20118;-79
2020/12/25 02:24:20;;;;;;;4.70;1.60;;;5.40;90.10;;;;;;5073995;28;20052;-81
2020/12/25 02:26:47;;;;;;;3.75;1.08;;;5.50;90.10;;;;;;5055647;28;20239;-81
2020/12/25 02:29:14;;;;;;;3.90;1.70;;;5.50;89.80;;;;;;5062456;28;20051;-81
2020/12/25 02:31:40;;;;;;;3.47;1.40;;;5.50;89.80;;;;;;5064186;28;20095;-80
2020/12/25 02:34:07;;;;;;;4.53;1.50;;;5.40;89.60;;;;;;5036181;28;20290;-81
2020/12/25 02:36:34;;;;;;;3.60;1.70;;;5.50;90.00;;;;;;5061904;28;20363;-81
2020/12/25 02:39:03;;;;;;;3.20;1.17;;;5.50;90.40;;;;;;5061860;28;20119;-81
2020/12/25 02:41:31;;;;;;;3.45;1.50;;;5.50;90.00;;;;;;5066774;28;20063;-79
2020/12/25 02:43:58;;;;;;;3.30;1.42;;;5.50;90.30;;;;;;5043998;28;20103;-82
2020/12/25 02:46:27;;;;;;;3.33;1.42;;;5.40;90.30;;;;;;5061984;28;20103;-80
2020/12/25 02:48:54;;;;;;;2.92;1.45;;;5.40;90.40;;;;;;5061002;28;20044;-81
2020/12/25 02:51:20;;;;;;;2.42;1.33;;;5.40;90.90;;;;;;5057720;28;20226;-79
2020/12/25 02:53:48;;;;;;;2.70;1.02;;;5.40;91.40;;;;;;5064601;28;20248;-80
2020/12/25 02:56:16;;;;;;;3.58;1.00;;;5.40;90.30;;;;;;5062103;28;20094;-81
2020/12/25 02:58:45;;;;;;;2.40;1.05;;;5.40;90.20;;;;;;5056491;28;20057;-79
2020/12/25 03:01:12;;;;;;;3.65;1.42;;;5.40;90.40;;;;;;5058019;28;20052;-82
2020/12/25 03:03:42;;;;;;;5.88;1.40;;;5.50;90.00;;;;;;5067892;28;20072;-81
2020/12/25 03:06:10;;;;;;;3.23;1.43;;;5.40;90.10;;;;;;5045478;28;20331;-80
2020/12/25 03:08:38;;;;;;;2.70;1.23;;;5.40;89.40;;;;;;5065096;28;20361;-80
2020/12/25 03:11:05;;;;;;;2.22;0.85;;;5.40;88.50;;;;;;5069162;28;20052;-80
2020/12/25 03:13:36;;;;;;;5.95;1.35;;;5.40;88.20;;;;;;5066181;28;20057;-79
2020/12/25 03:16:04;;;;;;;4.50;1.33;;;5.40;87.40;;;;;;5067165;28;20098;-81
2020/12/25 03:18:31;;;;;;;3.08;1.23;;;5.30;86.80;;;;;;5065808;28;20055;-80
2020/12/25 03:20:58;;;;;;;4.13;1.40;;;5.20;86.20;;;;;;5068105;28;20056;-80
2020/12/25 03:23:25;;;;;;;5.50;1.73;;;5.20;86.10;;;;;;5074538;28;20063;-81
2020/12/25 03:25:52;;;;;;;2.47;1.17;;;5.20;85.90;;;;;;5048300;28;20348;-81
2020/12/25 03:28:19;;;;;;;3.50;1.40;;;5.10;86.30;;;;;;5067596;28;20058;-81
2020/12/25 03:30:46;;;;;;;4.05;1.42;;;5.10;86.70;;;;;;5048629;28;20068;-81
2020/12/25 03:33:13;;;;;;;3.80;1.50;;;5.00;86.80;;;;;;5044801;28;20049;-81
2020/12/25 03:35:40;;;;;;;4.25;1.50;;;5.00;86.60;;;;;;5056730;28;20053;-82
2020/12/25 03:38:07;;;;;;;4.30;1.77;;;4.90;87.00;;;;;;5068020;28;20099;-79
2020/12/25 03:40:34;;;;;;;4.03;1.63;;;4.90;88.10;;;;;;5059775;28;20044;-80
2020/12/25 03:43:01;;;;;;;3.65;1.30;;;4.90;87.90;;;;;;5065089;28;20059;-81
2020/12/25 03:45:28;;;;;;;2.55;1.15;;;4.90;87.40;;;;;;5062179;28;20116;-81
2020/12/25 03:48:00;;;;;;;4.72;1.58;;;4.90;86.80;;;;;;5064595;28;20240;-81
2020/12/25 03:50:27;;;;;;;2.88;1.50;;;4.90;87.10;;;;;;5047824;28;20328;-81
2020/12/25 03:52:54;;;;;;;3.03;1.48;;;4.70;87.90;;;;;;5061190;28;20049;-82
2020/12/25 03:55:21;;;;;;;3.20;1.38;;;4.70;88.80;;;;;;5065180;28;20060;-82
2020/12/25 03:57:48;;;;;;;3.33;1.48;;;4.60;89.40;;;;;;5062342;28;20307;-81
2020/12/25 04:00:15;;;;;;;2.13;1.42;;;4.60;89.60;;;;;;5069415;28;20068;-81
2020/12/25 04:02:42;;;;;;;5.43;1.85;;;4.50;90.20;;;;;;5064408;28;20049;-80
2020/12/25 04:05:10;;;;;;;4.47;1.48;;;4.50;89.40;;;;;;5083206;28;20037;-81
2020/12/25 04:07:37;;;;;;;3.58;1.58;;;4.50;88.10;;;;;;5062226;28;20287;-81
2020/12/25 04:10:06;;;;;;;2.80;1.50;;;4.40;89.10;;;;;;5073046;28;20104;-81
2020/12/25 04:12:33;;;;;;;3.72;1.70;;;4.40;90.00;;;;;;5066703;28;20086;-81
2020/12/25 04:15:00;;;;;;;6.35;1.50;;;4.40;89.90;;;;;;5069449;28;20087;-82
2020/12/25 04:17:30;;;;;;;2.45;1.15;;;4.30;90.20;;;;;;5058317;28;20231;-81
2020/12/25 04:20:12;;;;;;;4.55;2.50;;;4.40;89.40;;;;;;1084128;28;10022684;-81
2020/12/25 04:22:39;;;;;;;3.83;1.60;;;4.40;89.70;;;;;;4669130;28;10000822;-80
2020/12/25 04:25:05;;;;;;;5.55;1.77;;;4.30;89.80;;;;;;5029441;28;20069;-81
2020/12/25 04:27:32;;;;;;;3.65;1.50;;;4.40;90.30;;;;;;5034879;28;20062;-81
2020/12/25 04:30:00;;;;;;;3.20;1.20;;;4.50;90.40;;;;;;5029507;28;20116;-80
2020/12/25 04:32:27;;;;;;;3.28;1.77;;;4.50;89.20;;;;;;5024693;28;20269;-82
2020/12/25 04:34:54;;;;;;;2.22;1.08;;;4.60;89.60;;;;;;5024041;28;20060;-80
2020/12/25 04:37:21;;;;;;;2.97;1.70;;;4.60;90.20;;;;;;5008539;28;20117;-81
2020/12/25 04:39:48;;;;;;;2.35;1.10;;;4.60;90.00;;;;;;5018338;28;20094;-80
2020/12/25 04:42:16;;;;;;;2.35;1.13;;;4.60;90.10;;;;;;5024546;28;20054;-84
2020/12/25 04:44:43;;;;;;;4.05;1.67;;;4.60;88.80;;;;;;5011546;28;20305;-80
2020/12/25 04:47:11;;;;;;;3.35;1.45;;;4.60;88.60;;;;;;5023029;28;20041;-81
2020/12/25 04:49:39;;;;;;;3.35;1.30;;;4.70;89.30;;;;;;5019804;28;20131;-80
2020/12/25 04:52:10;;;;;;;3.63;1.30;;;4.70;89.10;;;;;;5007249;28;20464;-81
2020/12/25 04:54:37;;;;;;;2.42;1.27;;;4.80;89.20;;;;;;5023494;28;20042;-82
2020/12/25 04:57:05;;;;;;;2.45;1.13;;;4.80;88.60;;;;;;5010445;28;20052;-81
2020/12/25 04:59:32;;;;;;;2.28;1.23;;;4.80;88.00;;;;;;5008780;28;20125;-79
2020/12/25 05:02:02;;;;;;;2.38;1.17;;;4.80;87.50;;;;;;5022808;28;20058;-80
2020/12/25 05:04:29;;;;;;;2.50;1.25;;;4.70;87.20;;;;;;5025240;28;20062;-81
2020/12/25 05:06:56;;;;;;;2.00;0.90;;;4.80;87.30;;;;;;5035403;28;20060;-81
2020/12/25 05:09:24;;;;;;;2.65;1.10;;;4.80;86.90;;;;;;5026138;28;20064;-81
2020/12/25 05:11:53;;;;;;;2.70;1.20;;;4.80;86.90;;;;;;5024200;28;20113;-81
2020/12/25 05:14:24;;;;;;;4.45;1.33;;;4.80;87.00;;;;;;5039705;28;20384;-81
2020/12/25 05:16:54;;;;;;;2.97;1.05;;;4.80;87.20;;;;;;5008782;28;20038;-81
2020/12/25 05:19:25;;;;;;;9.30;1.40;;;4.70;87.90;;;;;;5025898;28;20288;-80
2020/12/25 05:21:56;;;;;;;2.72;1.27;;;4.70;87.70;;;;;;5002938;28;20062;-82
2020/12/25 05:24:23;;;;;;;2.60;1.30;;;4.80;86.70;;;;;;5025623;28;20045;-82
2020/12/25 05:26:55;;;;;;;3.72;1.38;;;4.80;85.90;;;;;;5018294;28;20109;-79
2020/12/25 05:29:23;;;;;;;3.22;1.33;;;4.80;85.70;;;;;;5022164;28;20054;-80
2020/12/25 05:31:51;;;;;;;2.70;1.25;;;4.80;85.60;;;;;;4998533;28;20201;-79
2020/12/25 05:34:18;;;;;;;2.35;1.00;;;4.80;85.50;;;;;;5024685;28;20129;-80
2020/12/25 05:36:55;;;;;;;4.55;1.52;;;4.70;85.30;;;;;;5026290;28;20038;-82
2020/12/25 05:39:26;;;;;;;2.00;1.08;;;4.70;85.50;;;;;;5022860;28;20050;-80
2020/12/25 05:41:58;;;;;;;4.93;1.35;;;4.70;85.50;;;;;;5022902;28;20049;-80
2020/12/25 05:44:27;;;;;;;3.08;1.17;;;4.60;86.50;;;;;;5019313;28;20061;-83
2020/12/25 05:46:58;;;;;;;4.22;1.67;;;4.50;87.00;;;;;;5009008;28;20069;-80
2020/12/25 05:49:27;;;;;;;3.47;1.42;;;4.40;86.80;;;;;;5010773;28;20046;-82
2020/12/25 05:51:54;;;;;;;5.03;1.40;;;4.40;86.60;;;;;;5006911;28;20058;-80
2020/12/25 05:54:22;;;;;;;4.35;1.38;;;4.30;87.10;;;;;;5024083;28;20069;-81
2020/12/25 05:56:52;;;;;;;3.78;1.40;;;4.20;87.90;;;;;;5020937;28;20049;-80
2020/12/25 05:59:24;;;;;;;2.45;1.20;;;4.20;87.60;;;;;;5028294;28;20062;-81
2020/12/25 06:01:54;;;;;;;3.25;1.13;;;4.10;88.40;;;;;;5007625;28;20064;-81
2020/12/25 06:04:23;;;;;;;4.50;1.48;;;3.90;88.10;;;;;;5014721;28;20285;-81
2020/12/25 06:06:51;;;;;;;3.78;1.98;;;3.80;87.80;;;;;;5014626;28;20345;-81
2020/12/25 06:09:20;;;;;;;4.55;2.78;;;3.90;87.40;;;;;;5019623;28;20123;-82
2020/12/25 06:11:50;;;;;;;6.28;2.03;;;3.90;87.80;;;;;;5013752;28;20082;-82
2020/12/25 06:14:17;;;;;;;;;;;3.90;87.20;;;;;;5016936;28;20057;-81
2020/12/25 06:16:53;;;;;;;3.08;1.52;;;3.90;87.00;;;;;;5013626;28;19925;-80
2020/12/25 06:19:46;;;;;;;3.88;1.48;;;3.90;87.40;;;;;;5003738;28;20352;-81
2020/12/25 06:22:20;;;;;;;3.70;1.50;;;4.00;87.00;;;;;;5002585;28;20299;-81
2020/12/25 06:24:51;;;;;;;3.33;1.38;;;3.90;86.50;;;;;;5024740;28;20049;-82
2020/12/25 06:27:25;;;;;;;2.35;1.08;;;4.00;86.60;;;;;;5030127;28;20056;-81
2020/12/25 06:29:54;;;;;;;3.50;1.48;;;3.90;85.90;;;;;;5027543;28;20050;-81
2020/12/25 06:32:23;;;;;;;5.38;1.48;;;3.80;86.50;;;;;;5027797;28;20118;-80
2020/12/25 06:34:51;;;;;;;4.43;1.55;;;3.80;86.50;;;;;;5010380;28;20065;-81
2020/12/25 06:37:18;;;;;;;5.47;2.63;;;3.80;85.90;;;;;;5028448;28;20054;-80
2020/12/25 06:39:50;;;;;;;3.97;1.60;;;3.90;85.80;;;;;;5028402;28;20088;-81
2020/12/25 06:42:29;;;;;;;4.22;1.65;;;3.80;85.30;;;;;;5009304;28;20054;-79
2020/12/25 06:44:57;;;;;;;5.45;1.90;;;3.70;85.40;;;;;;5009165;28;20215;-79
2020/12/25 06:47:29;;;;;;;4.95;1.95;;;3.70;85.60;;;;;;5024079;28;20049;-82
2020/12/25 06:49:57;;;;;;;2.92;1.50;;;3.60;85.40;;;;;;5024626;28;20053;-79
2020/12/25 06:52:31;;;;;;;2.53;1.02;;;3.50;85.50;;;;;;5017948;28;20069;-82
2020/12/25 06:54:58;;;;;;;2.60;1.17;;;3.50;85.50;;;;;;5023829;28;20099;-80
2020/12/25 06:57:28;;;;;;;3.67;1.63;;;3.40;85.70;;;;;;5016561;28;20342;-80
2020/12/25 06:59:58;;;;;;;2.80;1.13;;;3.40;86.10;;;;;;5024668;28;20117;-81
2020/12/25 07:02:26;;;;;;;2.92;1.23;;;3.30;86.60;;;;;;5021513;28;20053;-81
2020/12/25 07:05:00;;;;;;;5.95;1.90;;;3.30;86.40;;;;;;5025283;28;20050;-80
2020/12/25 07:07:31;;;;;;;2.75;1.30;;;3.20;86.30;;;;;;5022398;28;20074;-80
2020/12/25 07:10:05;;;;;;;3.17;1.35;;;3.10;86.20;;;;;;5012930;28;20068;-80
2020/12/25 07:12:32;;;;;;;4.88;1.38;;;3.00;87.00;;;;;;5010047;28;20049;-80
2020/12/25 07:14:59;;;;;;;2.58;1.17;;;3.00;86.30;;;;;;5025602;28;20069;-80
2020/12/25 07:17:26;;;;;;;4.00;1.40;;;3.00;86.20;;;;;;5017277;28;20345;-82
2020/12/25 07:19:53;;;;;;;3.47;1.42;;;3.10;85.60;;;;;;5028096;28;20050;-83
2020/12/25 07:22:22;;;;;;;2.67;1.10;;;3.10;85.60;;;;;;5016190;28;20085;-82
2020/12/25 07:24:49;;;;;;;2.25;0.98;;;3.00;85.80;;;;;;5030736;28;20065;-81
2020/12/25 07:27:17;;;;;;;2.40;0.77;;;3.10;85.80;;;;;;5026848;28;20041;-81
2020/12/25 07:29:45;;;;;;;5.90;1.92;;;3.10;85.40;;;;;;5023041;28;20050;-81
2020/12/25 07:32:13;;;;;;;3.40;1.40;;;3.20;85.10;;;;;;5025731;28;20057;-80
2020/12/25 07:34:41;;;;;;;3.72;0.95;;;3.20;83.90;;;;;;5027084;28;20064;-80
2020/12/25 07:37:10;;;;;;;4.70;1.70;;;3.30;82.80;;;;;;5021401;28;20051;-82
2020/12/25 07:39:37;;;;;;;5.25;1.90;;;3.40;82.80;;;;;;5021754;28;20260;-83
2020/12/25 07:42:07;;;;;;;3.42;1.70;;;3.30;82.80;;;;;;5019675;28;20077;-81
2020/12/25 07:44:34;;;;;;;5.13;2.50;;;3.40;82.90;;;;;;5009190;28;20276;-80
2020/12/25 07:47:00;;;;;;;3.55;1.70;;;3.40;83.40;;;;;;5027330;28;20097;-80
2020/12/25 07:49:29;;;;;;;3.95;1.70;;;3.40;82.60;;;;;;5011964;28;20233;-82
2020/12/25 07:51:58;;;;;;;6.03;1.80;;;3.50;82.70;;;;;;5026721;28;20091;-81
2020/12/25 07:54:26;;;;;;;3.97;1.42;;;3.50;82.40;;;;;;5016537;28;20234;-81
2020/12/25 07:56:54;;;;;;;2.72;1.00;;;3.60;82.30;;;;;;5023780;28;20034;-82
2020/12/25 07:59:24;;;;;;;3.40;1.27;;;3.60;82.10;;;;;;5010485;28;20241;-80
2020/12/25 08:01:52;;;;;;;2.47;1.23;;;3.70;82.30;;;;;;5025546;28;20045;-81
2020/12/25 08:04:19;;;;;;;1.80;0.73;;;3.70;80.30;;;;;;5025087;28;20061;-80
2020/12/25 08:06:46;;;;;;;2.58;1.25;;;3.90;79.80;;;;;;5027548;28;20277;-82
2020/12/25 08:09:17;;;;;;;3.00;1.10;;;3.90;79.50;;;;;;5020255;28;20053;-81
2020/12/25 08:11:45;;;;;;;4.03;1.27;;;3.90;79.50;;;;;;5024270;28;20054;-81
2020/12/25 08:14:16;;;;;;;3.28;1.00;;;3.90;80.00;;;;;;5031875;28;20075;-81
2020/12/25 08:16:44;;;;;;;2.85;1.17;;;3.90;78.70;;;;;;5024527;28;20393;-80
2020/12/25 08:19:22;;;;;;;3.05;1.17;;;4.00;77.30;;;;;;5044055;28;20049;-81
2020/12/25 08:22:03;;;;;;;1.63;0.82;;;4.00;78.70;;;;;;5018545;28;20073;-81
2020/12/25 08:24:31;;;;;;;3.00;0.70;;;4.00;76.90;;;;;;5030200;28;20053;-81
2020/12/25 08:27:01;;;;;;;3.65;0.93;;;4.10;77.00;;;;;;5026233;28;20073;-79
2020/12/25 08:29:32;;;;;;;1.90;0.90;;;4.10;77.80;;;;;;5022373;28;20194;-81
2020/12/25 08:32:06;;;;;;;2.08;0.80;;;4.10;77.80;;;;;;5008786;28;20121;-81
2020/12/25 08:35:04;;;;;;;2.90;1.15;;;4.10;78.60;;;;;;5026888;28;20054;-81
2020/12/25 08:37:40;;;;;;;1.52;0.80;;;4.10;76.80;;;;;;5022982;28;20050;-80
2020/12/25 08:40:14;;;;;;;0.85;0.55;;;4.20;76.80;;;;;;5031505;28;20073;-81
2020/12/25 08:42:42;;;;;;;4.10;1.33;;;4.20;75.90;;;;;;5027076;28;20050;-82
2020/12/25 08:45:10;;;;;;;2.20;0.80;;;4.10;76.10;;;;;;5024400;28;20061;-80
2020/12/25 08:47:37;;;;;;;1.88;1.00;;;4.00;76.90;;;;;;5025308;28;20058;-81
2020/12/25 08:50:04;;;;;;;1.05;0.70;;;4.10;77.30;;;;;;5031140;28;20061;-81
2020/12/25 08:52:33;;;;;;;2.65;1.38;;;4.20;76.50;;;;;;5022769;28;20084;-80
2020/12/25 08:55:00;;;;;;;6.18;1.20;;;4.10;76.20;;;;;;5031176;28;20053;-80
2020/12/25 08:57:30;;;;;;;1.35;0.57;;;4.10;76.90;;;;;;5024997;28;20045;-79
2020/12/25 09:00:07;;;;;;;2.28;1.00;;;4.20;76.10;;;;;;5007959;28;20049;-81
2020/12/25 09:02:35;;;;;;;2.35;0.70;;;4.20;76.20;;;;;;5026667;28;20431;-81
2020/12/25 09:05:03;;;;;;;1.38;0.70;;;4.20;75.30;;;;;;5025293;28;20341;-81
2020/12/25 09:07:30;;;;;;;1.58;0.82;;;4.30;75.80;;;;;;5035254;28;20245;-80
2020/12/25 09:09:56;;;;;;;2.28;0.98;;;4.30;74.90;;;;;;5033565;28;20049;-81
2020/12/25 09:12:23;;;;;;;1.42;0.68;;;4.30;75.20;;;;;;5019353;28;20065;-83
2020/12/25 09:14:51;;;;;;;2.55;1.00;;;4.20;74.60;;;;;;5008630;28;20064;-81
2020/12/25 09:17:18;;;;;;;2.97;1.00;;;4.30;74.30;;;;;;5025450;28;20064;-82
2020/12/25 09:19:45;;;;;;;2.15;0.90;;;4.40;74.90;;;;;;5025840;28;20053;-81
2020/12/25 09:22:12;;;;;;;3.53;0.93;;;4.30;74.60;;;;;;5009325;28;20057;-80
2020/12/25 09:24:39;;;;;;;2.08;0.90;;;4.40;74.10;;;;;;5024307;28;20046;-80
2020/12/25 09:27:07;;;;;;;5.32;1.30;;;4.30;74.20;;;;;;5024922;28;20225;-80
2020/12/25 09:29:34;;;;;;;2.33;1.08;;;4.40;73.90;;;;;;5024124;28;20056;-82
2020/12/25 09:32:02;;;;;;;1.45;0.90;;;4.40;74.10;;;;;;5014080;28;20364;-81
2020/12/25 09:34:29;;;;;;;1.75;1.17;;;4.40;74.60;;;;;;5040659;28;20058;-80
2020/12/25 09:36:58;;;;;;;3.05;0.90;;;4.50;74.60;;;;;;5017094;28;20049;-81
2020/12/25 09:39:25;;;;;;;3.80;1.45;;;4.60;73.40;;;;;;5030625;28;20062;-81
2020/12/25 09:41:52;;;;;;;1.52;0.82;;;4.70;73.90;;;;;;5008157;28;20092;-81
2020/12/25 09:44:18;;;;;;;1.10;0.70;;;4.80;73.20;;;;;;5025805;28;20057;-81
2020/12/25 09:46:45;;;;;;;1.05;0.73;;;4.70;72.50;;;;;;5012307;28;20041;-80
2020/12/25 09:49:12;;;;;;;3.33;1.08;;;4.80;72.60;;;;;;5019905;28;20072;-83
2020/12/25 09:51:39;;;;;;;1.10;0.60;;;4.80;72.70;;;;;;5024862;28;20125;-82
2020/12/25 09:54:07;;;;;;;3.38;1.23;;;4.90;72.30;;;;;;5012058;28;20117;-81
2020/12/25 09:56:33;;;;;;;1.38;1.00;;;5.00;73.30;;;;;;5024681;28;20109;-81
2020/12/25 09:59:00;;;;;;;3.10;1.00;;;5.10;72.60;;;;;;5021880;28;20057;-82
2020/12/25 10:01:29;;;;;;;2.58;1.15;;;5.10;72.90;;;;;;5014802;28;20114;-80
2020/12/25 10:03:55;;;;;;;2.00;0.77;;;5.20;72.10;;;;;;5041194;28;20335;-80
2020/12/25 10:06:22;;;;;;;1.70;0.60;;;5.10;72.00;;;;;;5028213;28;20038;-80
2020/12/25 10:08:49;;;;;;;1.58;0.70;;;5.10;72.10;;;;;;5009584;28;20061;-79
2020/12/25 10:11:28;;;;;;;2.33;0.95;;;5.10;70.90;;;;;;5024768;28;20065;-81
2020/12/25 10:13:55;;;;;;;1.45;0.77;;;5.40;71.10;;;;;;5045801;28;20068;-80
2020/12/25 10:16:22;;;;;;;2.15;0.80;;;5.40;71.70;;;;;;5023993;28;20045;-82
2020/12/25 10:18:49;;;;;;;2.85;1.00;;;5.40;70.70;;;;;;5027494;28;20085;-80
2020/12/25 10:21:20;;;;;;;1.38;0.60;;;5.80;69.30;;;;;;5028557;28;20057;-81
2020/12/25 10:23:47;;;;;;;2.92;0.77;;;7.80;63.50;;;;;;5023661;28;20053;-80
2020/12/25 10:26:14;;;;;;;1.42;0.70;;;8.90;57.60;;;;;;5013946;28;20074;-80
2020/12/25 10:28:42;;;;;;;3.63;1.10;;;9.80;54.80;;;;;;5042122;28;20042;-83
2020/12/25 10:31:09;;;;;;;1.42;0.65;;;10.50;52.10;;;;;;5030526;28;20057;-80
2020/12/25 10:33:38;;;;;;;3.78;0.98;;;10.50;50.70;;;;;;5025905;28;20057;-80
2020/12/25 10:36:05;;;;;;;2.00;1.00;;;10.10;51.10;;;;;;5023857;28;20050;-81
2020/12/25 10:38:34;;;;;;;4.60;1.60;;;8.60;53.30;;;;;;5019286;28;20096;-79
2020/12/25 10:41:02;;;;;;;1.70;0.95;;;9.80;52.30;;;;;;5029741;28;20054;-80
2020/12/25 10:43:29;;;;;;;1.60;0.85;;;10.70;49.20;;;;;;4998797;28;20057;-79
2020/12/25 10:45:57;;;;;;;1.85;0.80;;;11.40;46.10;;;;;;5002381;28;20065;-82
2020/12/25 10:48:24;;;;;;;2.20;0.90;;;11.20;46.10;;;;;;5027768;28;20129;-81
2020/12/25 10:50:51;;;;;;;1.38;0.77;;;12.10;45.80;;;;;;5027257;28;20050;-80
2020/12/25 10:53:19;;;;;;;3.78;1.15;;;12.60;43.70;;;;;;5026085;28;20053;-81
2020/12/25 10:55:46;;;;;;;1.20;0.73;;;12.20;45.30;;;;;;5025886;28;20120;-80
2020/12/25 10:58:13;;;;;;;1.33;0.70;;;12.20;43.40;;;;;;5018834;28;20057;-82
2020/12/25 11:00:40;;;;;;;1.98;0.82;;;11.90;43.90;;;;;;5024384;28;20061;-79
2020/12/25 11:03:07;;;;;;;1.08;0.77;;;12.10;44.70;;;;;;5023711;28;20053;-79
2020/12/25 11:05:34;;;;;;;1.90;0.90;;;12.20;44.30;;;;;;5025586;28;20080;-80
2020/12/25 11:08:01;;;;;;;3.00;0.80;;;11.60;44.60;;;;;;5021870;28;20117;-80
2020/12/25 11:10:28;;;;;;;2.22;0.85;;;11.50;45.90;;;;;;5023362;28;20065;-80
2020/12/25 11:12:55;;;;;;;2.50;0.95;;;11.30;44.70;;;;;;5015041;28;20062;-79
2020/12/25 11:15:23;;;;;;;11.63;1.25;;;10.40;46.20;;;;;;5012962;28;20057;-80
2020/12/25 11:17:50;;;;;;;4.53;1.40;;;9.40;48.90;;;;;;5025768;28;20060;-81
2020/12/25 11:20:17;;;;;;;1.77;0.85;;;8.60;51.60;;;;;;5015483;28;20095;-81
2020/12/25 11:22:44;;;;;;;2.55;1.08;;;7.90;53.80;;;;;;5035118;28;20077;-80
2020/12/25 11:25:14;;;;;;;2.03;0.88;;;7.70;55.30;;;;;;5024929;28;20050;-80
2020/12/25 11:27:42;;;;;;;2.75;0.98;;;7.40;56.10;;;;;;5025377;28;20383;-81
2020/12/25 11:30:09;;;;;;;1.70;0.73;;;6.90;57.50;;;;;;5023379;28;20066;-80
2020/12/25 11:32:36;;;;;;;2.40;0.77;;;6.60;58.60;;;;;;5025408;28;20048;-81
2020/12/25 11:35:04;;;;;;;2.58;0.98;;;6.30;59.90;;;;;;5022159;28;20072;-81
2020/12/25 11:37:34;;;;;;;4.82;1.52;;;6.30;60.20;;;;;;5025577;28;20038;-80
2020/12/25 11:40:01;;;;;;;2.80;0.90;;;7.30;57.50;;;;;;5021757;28;20088;-80
2020/12/25 11:42:32;;;;;;;3.80;0.98;;;8.40;53.30;;;;;;5018944;28;20072;-79
2020/12/25 11:45:00;;;;;;;2.97;1.30;;;9.40;52.00;;;;;;5009202;28;20061;-79
2020/12/25 11:47:30;;;;;;;1.67;0.87;;;10.20;49.90;;;;;;5009124;28;20037;-79
2020/12/25 11:49:58;;;;;;;1.77;0.90;;;10.80;47.70;;;;;;5022626;28;20085;-79
2020/12/25 11:52:31;;;;;;;1.80;0.90;;;11.50;45.80;;;;;;5017538;28;20120;-80
2020/12/25 11:54:59;;;;;;;3.13;0.77;;;10.40;47.10;;;;;;5026041;28;20104;-79
2020/12/25 11:57:28;;;;;;;2.03;0.83;;;10.10;47.30;;;;;;5024757;28;20351;-82
2020/12/25 11:59:57;;;;;;;1.95;0.77;;;10.40;45.90;;;;;;5023772;28;20057;-81
2020/12/25 12:02:24;;;;;;;2.47;1.02;;;10.90;44.50;;;;;;5017994;28;20072;-81
2020/12/25 12:04:51;;;;;;;2.45;1.20;;;11.30;43.20;;;;;;5012023;28;20054;-80
2020/12/25 12:07:18;;;;;;;2.20;0.73;;;11.90;42.10;;;;;;5036936;28;20221;-80
2020/12/25 12:09:45;;;;;;;1.42;0.70;;;12.00;40.90;;;;;;5026439;28;20379;-82
2020/12/25 12:12:12;;;;;;;0.88;0.63;;;12.40;42.50;;;;;;5009191;28;20282;-80
2020/12/25 12:14:41;;;;;;;1.58;0.85;;;13.00;38.60;;;;;;5028766;28;20050;-79
2020/12/25 12:17:09;;;;;;;1.98;0.90;;;13.60;38.30;;;;;;5027592;28;20039;-80
2020/12/25 12:19:37;;;;;;;2.00;0.90;;;13.90;37.40;;;;;;5013714;28;20046;-79
2020/12/25 12:22:08;;;;;;;2.25;0.95;;;13.90;36.30;;;;;;5033026;28;20120;-79
2020/12/25 12:24:36;;;;;;;1.70;0.80;;;14.10;37.90;;;;;;5014115;28;20046;-80
2020/12/25 12:27:04;;;;;;;2.20;0.60;;;14.00;37.30;;;;;;5013591;28;20265;-79
2020/12/25 12:29:33;;;;;;;1.33;0.70;;;14.00;37.10;;;;;;5015973;28;20053;-80
2020/12/25 12:32:00;;;;;;;1.48;0.70;;;13.90;36.70;;;;;;5034936;28;20046;-81
2020/12/25 12:34:29;;;;;;;1.67;0.80;;;13.50;36.60;;;;;;5024727;28;20082;-81
2020/12/25 12:36:57;;;;;;;2.28;0.90;;;13.60;36.30;;;;;;5010591;28;20062;-80
2020/12/25 12:39:36;;;;;;;1.08;0.55;;;13.40;35.80;;;;;;5030855;28;20069;-80
2020/12/25 12:42:05;;;;;;;2.03;0.80;;;13.50;37.50;;;;;;5037376;28;20049;-79
2020/12/25 12:44:34;;;;;;;2.50;0.90;;;13.70;35.90;;;;;;5040730;28;20125;-80
2020/12/25 12:47:04;;;;;;;2.05;0.90;;;14.30;36.00;;;;;;5032016;28;20057;-79
2020/12/25 12:49:32;;;;;;;3.67;1.15;;;15.00;34.40;;;;;;5013393;28;20121;-79
2020/12/25 12:52:13;;;;;;;2.13;1.05;;;15.10;34.60;;;;;;5017427;28;20053;-79
2020/12/25 12:54:47;;;;;;;3.10;1.08;;;14.80;34.00;;;;;;5034946;28;20049;-80
2020/12/25 12:57:15;;;;;;;2.33;0.60;;;14.20;35.00;;;;;;5016568;28;20092;-79
2020/12/25 12:59:43;;;;;;;3.10;1.05;;;14.40;34.10;;;;;;5032728;28;20053;-79
2020/12/25 13:02:13;;;;;;;1.77;0.70;;;14.20;35.10;;;;;;5016232;28;20069;-80